Terminal Aerodrome Forecast
Issued by NWS Twin Cities, MN

Home | Current Version | Previous Version | Graphics & Text | Print | Product List | Glossary On
Versions: 1 2 3 4 5 6 7 8 9 10 11 12 13 14 15 16 17 18 19 20
000
FTUS43 KMPX 251120
TAFEAU
TAF
KEAU 251120Z 2512/2612 06004KT P6SM BKN250
     FM251800 10009KT 5SM -SHRA VCTS SCT020 OVC050CB
     FM252200 12008KT P6SM VCSH OVC025
     FM260100 12007KT 6SM BR OVC020
     FM260700 15003KT 1SM BR OVC007=

USA.gov is the U.S. government's official web portal to all federal, state and local government web resources and services.